Time;durP1;ratioP1;P1;durP2;ratioP2;P2;SDS_P1;SDS_P2;PMS_P1;PMS_P2;Temp;Humidity;BMP_temperature;BMP_pressure;BME280_temperature;BME280_humidity;BME280_pressure;Samples;Min_cycle;Max_cycle;Signal;HPM_P1;HPM_P2
2021/09/30 00:01:24;;;;;;;2.07;0.60;;;;;;;7.87;100.00;97209.91;4972146;28;20489;-76
2021/09/30 00:03:50;;;;;;;3.17;0.70;;;;;;;7.94;100.00;97208.47;4955099;28;20101;-76
2021/09/30 00:06:16;;;;;;;4.37;1.03;;;;;;;7.93;100.00;97215.50;4953814;28;20035;-76
2021/09/30 00:08:42;;;;;;;3.07;0.80;;;;;;;7.89;100.00;97215.88;4954827;28;20030;-76
2021/09/30 00:11:13;;;;;;;2.93;0.60;;;;;;;7.89;100.00;97221.94;4939403;28;20550;-77
2021/09/30 00:40:18;;;;;;;3.63;1.10;;;;;;;7.74;100.00;97223.09;4970939;28;20465;-76
2021/09/30 00:45:46;;;;;;;4.97;0.90;;;;;;;7.56;100.00;97220.94;4917964;28;20035;-77
2021/09/30 00:53:45;;;;;;;2.70;0.93;;;;;;;7.47;100.00;97228.63;4950201;28;20031;-76
2021/09/30 02:18:41;;;;;;;4.57;1.00;;;;;;;6.89;100.00;97265.16;4949772;28;20378;-77
2021/09/30 02:28:54;;;;;;;4.63;1.47;;;;;;;6.72;100.00;97266.38;4951145;28;20067;-76
2021/09/30 02:59:47;;;;;;;6.83;1.30;;;;;;;6.54;100.00;97294.69;4952715;28;20034;-76
2021/09/30 03:06:04;;;;;;;4.00;1.10;;;;;;;6.48;100.00;97299.50;4956437;28;20130;-77
2021/09/30 03:08:44;;;;;;;6.20;1.93;;;;;;;6.49;100.00;97298.53;4953475;28;20125;-77
2021/09/30 03:11:12;;;;;;;7.33;1.37;;;;;;;6.42;100.00;97297.31;4938543;28;20031;-77
2021/09/30 03:13:41;;;;;;;11.43;3.23;;;;;;;6.42;100.00;97286.84;4951483;28;20081;-77
2021/09/30 03:16:21;;;;;;;3.27;1.13;;;;;;;6.43;100.00;97293.75;4936507;28;20038;-76
2021/09/30 03:19:16;;;;;;;4.73;1.50;;;;;;;6.38;100.00;97287.06;4951143;28;20041;-76
2021/09/30 03:24:49;;;;;;;2.92;0.82;;;;;;;6.35;100.00;97302.13;4910960;29;20032;-77
2021/09/30 03:27:16;;;;;;;6.57;1.27;;;;;;;6.33;100.00;97299.59;4949390;28;20030;-76
2021/09/30 03:29:43;;;;;;;5.53;1.53;;;;;;;6.32;100.00;97310.19;4943748;28;20125;-77
2021/09/30 03:32:10;;;;;;;4.30;1.30;;;;;;;6.28;100.00;97308.72;4942505;28;20026;-78
2021/09/30 03:34:43;;;;;;;5.13;1.38;;;;;;;6.24;100.00;97313.31;4956976;28;20046;-78
2021/09/30 03:37:09;;;;;;;2.93;1.17;;;;;;;6.26;100.00;97313.22;4941212;28;20031;-77
2021/09/30 03:39:37;;;;;;;3.27;1.20;;;;;;;6.24;100.00;97302.88;4939946;28;20031;-77
2021/09/30 03:42:04;;;;;;;6.43;1.10;;;;;;;6.25;100.00;97315.00;4948680;28;20045;-77
2021/09/30 03:44:36;;;;;;;4.67;1.73;;;;;;;6.21;100.00;97310.09;4939816;28;20054;-77
2021/09/30 03:47:08;;;;;;;5.00;1.30;;;;;;;6.25;100.00;97308.94;4940607;28;20031;-77
2021/09/30 03:49:49;;;;;;;4.97;1.30;;;;;;;6.21;100.00;97308.31;4952959;28;20039;-77
2021/09/30 03:52:25;;;;;;;4.00;1.37;;;;;;;6.19;100.00;97304.13;4957452;28;20039;-77
2021/09/30 03:55:17;;;;;;;3.97;1.20;;;;;;;6.14;100.00;97304.44;4940010;28;20054;-77
2021/09/30 04:00:19;;;;;;;7.13;1.67;;;;;;;6.13;100.00;97319.25;4954800;28;20121;-77
2021/09/30 04:02:49;;;;;;;5.70;1.60;;;;;;;6.14;100.00;97309.69;4940093;28;20031;-77
2021/09/30 04:05:15;;;;;;;4.13;1.70;;;;;;;6.08;100.00;97313.53;4936983;28;20045;-77
2021/09/30 04:07:41;;;;;;;3.37;1.30;;;;;;;6.05;100.00;97310.31;4955900;28;20026;-78
2021/09/30 04:10:07;;;;;;;4.83;1.60;;;;;;;6.06;100.00;97323.25;4939357;28;20089;-77
2021/09/30 04:12:33;;;;;;;8.80;1.87;;;;;;;6.02;100.00;97320.94;4939745;28;20018;-77
2021/09/30 04:15:17;;;;;;;3.97;1.40;;;;;;;5.99;100.00;97315.94;4922752;29;20035;-77
2021/09/30 04:17:45;;;;;;;3.45;1.20;;;;;;;5.96;100.00;97322.19;4953408;28;20524;-77
2021/09/30 04:20:21;;;;;;;3.20;1.57;;;;;;;6.03;100.00;97325.22;4954170;28;20409;-77
2021/09/30 04:22:48;;;;;;;6.60;1.70;;;;;;;6.00;100.00;97339.34;4938052;28;20030;-77
2021/09/30 04:25:15;;;;;;;5.30;1.90;;;;;;;6.05;100.00;97339.03;4937029;28;20528;-77
2021/09/30 04:27:41;;;;;;;4.83;1.67;;;;;;;6.01;100.00;97335.78;4952812;28;20442;-76
2021/09/30 04:30:08;;;;;;;8.77;1.70;;;;;;;5.95;100.00;97335.38;4935388;28;20031;-77
2021/09/30 04:32:50;;;;;;;5.70;1.52;;;;;;;5.92;100.00;97341.59;4936460;28;20767;-79
2021/09/30 04:35:17;;;;;;;4.80;1.50;;;;;;;5.94;100.00;97331.91;4948430;28;20046;-78
2021/09/30 04:37:42;;;;;;;3.47;1.50;;;;;;;5.84;100.00;97334.28;4947998;28;20039;-77
2021/09/30 04:40:16;;;;;;;4.60;1.40;;;;;;;5.77;100.00;97342.59;4949130;28;20401;-78
2021/09/30 04:42:45;;;;;;;5.10;1.70;;;;;;;5.76;100.00;97333.94;4954338;28;20118;-77
2021/09/30 04:45:12;;;;;;;4.20;1.40;;;;;;;5.77;100.00;97340.00;4938624;28;20563;-78
2021/09/30 04:47:41;;;;;;;4.43;1.80;;;;;;;5.78;100.00;97334.69;4943770;28;20862;-78
2021/09/30 04:50:11;;;;;;;3.43;1.40;;;;;;;5.81;100.00;97337.09;4952033;28;20034;-78
2021/09/30 04:52:39;;;;;;;5.67;1.77;;;;;;;5.85;100.00;97338.56;4955502;28;20400;-78
2021/09/30 04:55:06;;;;;;;5.90;1.73;;;;;;;5.84;100.00;97341.28;4944154;28;20034;-77
2021/09/30 04:57:32;;;;;;;5.03;1.40;;;;;;;5.84;100.00;97339.50;4959038;28;20038;-78
2021/09/30 05:00:05;;;;;;;2.63;1.20;;;;;;;5.82;100.00;97340.53;4941843;29;20557;-78
2021/09/30 05:02:51;;;;;;;5.13;1.60;;;;;;;5.75;100.00;97342.72;4954178;28;20102;-78
2021/09/30 05:05:17;;;;;;;3.37;1.47;;;;;;;5.80;100.00;97348.47;4933476;29;20039;-78
2021/09/30 05:07:43;;;;;;;7.30;1.57;;;;;;;5.83;100.00;97342.19;4945581;28;20114;-77
2021/09/30 05:10:12;;;;;;;2.30;1.17;;;;;;;5.87;100.00;97343.69;4939011;28;20041;-78
2021/09/30 05:12:38;;;;;;;5.07;1.47;;;;;;;5.89;100.00;97349.63;4953460;28;20583;-78
2021/09/30 05:15:04;;;;;;;4.03;1.53;;;;;;;5.84;100.00;97341.28;4936500;28;20035;-78
2021/09/30 05:17:35;;;;;;;6.33;1.30;;;;;;;5.77;100.00;97348.69;4933241;29;20023;-79
2021/09/30 05:20:09;;;;;;;4.60;1.43;;;;;;;5.83;100.00;97352.63;4968439;28;20070;-78
2021/09/30 05:22:39;;;;;;;3.57;1.57;;;;;;;5.83;100.00;97350.03;4948909;28;20034;-78
2021/09/30 05:25:06;;;;;;;6.10;2.30;;;;;;;5.79;100.00;97352.00;4953165;28;20041;-78
2021/09/30 05:27:32;;;;;;;7.17;2.87;;;;;;;5.88;100.00;97354.00;4937156;28;20034;-78
2021/09/30 05:30:05;;;;;;;3.53;1.67;;;;;;;5.88;100.00;97355.78;4947534;28;20046;-77
2021/09/30 05:32:33;;;;;;;5.43;1.60;;;;;;;5.89;100.00;97360.06;4931030;28;20427;-78
2021/09/30 05:35:20;;;;;;;5.60;1.37;;;;;;;5.95;100.00;97358.88;4965252;28;20047;-78
2021/09/30 05:37:50;;;;;;;8.03;1.90;;;;;;;5.94;100.00;97362.41;4936456;28;20153;-78
2021/09/30 05:40:19;;;;;;;7.83;1.97;;;;;;;6.11;100.00;97367.34;4934087;28;20081;-78
2021/09/30 05:42:58;;;;;;;6.33;2.40;;;;;;;6.43;100.00;97364.28;4938480;28;20030;-78
2021/09/30 05:45:29;;;;;;;5.03;1.90;;;;;;;6.65;100.00;97366.28;4945039;28;20406;-77
2021/09/30 05:47:55;;;;;;;5.53;1.77;;;;;;;7.00;100.00;97361.16;4937565;28;20058;-78
2021/09/30 05:50:22;;;;;;;6.13;2.33;;;;;;;7.12;100.00;97354.22;4935247;28;20113;-78
2021/09/30 05:53:02;;;;;;;5.77;2.07;;;;;;;7.28;100.00;97354.78;4954867;28;20405;-78
2021/09/30 05:55:48;;;;;;;3.70;1.30;;;;;;;7.72;100.00;97363.78;4966807;28;20128;-78
2021/09/30 05:58:15;;;;;;;5.87;3.10;;;;;;;7.75;100.00;97359.16;4937164;29;20466;-78
2021/09/30 06:14:21;;;;;;;5.27;1.10;;;;;;;8.96;92.54;97360.38;4952768;28;20046;-79
2021/09/30 06:16:50;;;;;;;5.27;1.23;;;;;;;9.58;91.98;97361.50;4949398;28;20042;-78
2021/09/30 06:19:21;;;;;;;2.50;1.20;;;;;;;9.65;89.33;97357.41;4931326;28;20135;-78
2021/09/30 06:21:57;;;;;;;3.57;0.70;;;;;;;9.94;87.61;97354.19;4945600;28;20468;-78
2021/09/30 06:24:24;;;;;;;2.30;0.80;;;;;;;10.05;86.70;97366.44;4935747;28;20035;-78
2021/09/30 06:26:57;;;;;;;3.37;0.83;;;;;;;9.95;87.49;97366.34;4937528;28;20073;-78
2021/09/30 06:29:23;;;;;;;5.00;1.30;;;;;;;10.11;86.72;97361.50;4938553;28;20035;-78
2021/09/30 06:31:52;;;;;;;2.87;1.00;;;;;;;10.38;85.90;97368.88;4951497;28;20019;-78
2021/09/30 06:34:24;;;;;;;5.13;1.30;;;;;;;10.42;85.75;97368.63;4965451;28;20047;-79
2021/09/30 06:37:00;;;;;;;5.97;1.20;;;;;;;10.30;83.74;97370.50;4947604;28;20068;-79
2021/09/30 06:43:14;;;;;;;3.53;0.90;;;;;;;11.35;80.38;97370.19;4965881;28;20042;-79
2021/09/30 06:46:15;;;;;;;4.30;0.83;;;;;;;11.54;80.37;97370.22;4915258;29;20546;-78
2021/09/30 06:48:52;;;;;;;2.07;0.70;;;;;;;11.28;80.48;97378.63;4947579;28;20484;-79
2021/09/30 06:51:43;;;;;;;3.23;0.90;;;;;;;11.70;78.83;97375.78;4967212;28;20505;-78
2021/09/30 06:54:09;;;;;;;3.80;1.20;;;;;;;11.62;78.61;97383.53;4932390;29;20151;-78
2021/09/30 06:56:54;;;;;;;4.97;1.40;;;;;;;11.96;77.65;97388.44;4954908;28;20038;-78
2021/09/30 06:59:24;;;;;;;3.80;0.87;;;;;;;11.76;77.04;97382.28;4952214;28;20078;-77
2021/09/30 07:02:12;;;;;;;4.50;1.33;;;;;;;11.94;76.55;97385.13;4952014;28;20073;-77
2021/09/30 07:05:00;;;;;;;1.83;0.80;;;;;;;12.46;74.89;97380.31;4955594;28;20042;-78
2021/09/30 07:07:31;;;;;;;3.33;0.73;;;;;;;13.37;71.64;97383.13;4952815;29;20035;-77
2021/09/30 07:09:56;;;;;;;2.70;0.83;;;;;;;13.14;71.00;97391.44;4944468;28;20034;-77
2021/09/30 07:12:23;;;;;;;2.63;0.90;;;;;;;13.09;72.20;97392.88;4939744;28;20082;-77
2021/09/30 07:14:49;;;;;;;4.37;1.43;;;;;;;12.93;71.87;97394.31;4955279;28;20136;-77
2021/09/30 07:17:15;;;;;;;1.73;0.53;;;;;;;12.87;71.45;97394.88;4939671;28;20482;-78
2021/09/30 07:19:40;;;;;;;4.50;0.83;;;;;;;13.57;69.80;97389.13;4964250;28;20053;-77
2021/09/30 07:22:07;;;;;;;3.73;0.80;;;;;;;13.07;69.19;97400.09;4946436;28;20039;-78
2021/09/30 07:24:36;;;;;;;5.07;0.97;;;;;;;12.85;71.11;97401.31;4955061;28;20449;-78
2021/09/30 07:27:10;;;;;;;3.47;0.90;;;;;;;13.30;70.79;97398.75;4954949;28;20027;-77
2021/09/30 07:29:38;;;;;;;2.90;0.77;;;;;;;13.32;69.18;97395.97;4967902;28;20038;-78
2021/09/30 07:32:04;;;;;;;4.23;1.10;;;;;;;13.16;69.61;97404.50;4955691;28;20108;-78
2021/09/30 07:34:30;;;;;;;3.27;0.90;;;;;;;13.49;67.95;97411.03;4957777;28;20953;-78
2021/09/30 07:37:02;;;;;;;4.10;1.30;;;;;;;13.50;68.65;97409.22;4939786;28;20122;-78
2021/09/30 07:39:44;;;;;;;2.30;0.70;;;;;;;14.81;64.79;97396.09;4955037;28;20035;-78
2021/09/30 07:42:10;;;;;;;1.73;0.70;;;;;;;14.42;64.07;97400.97;4947232;28;20031;-78
2021/09/30 07:44:37;;;;;;;4.03;0.80;;;;;;;14.85;63.03;97399.25;4954745;28;20026;-78
2021/09/30 07:47:04;;;;;;;4.20;1.10;;;;;;;14.91;62.68;97409.22;4939265;28;20113;-78
2021/09/30 07:49:31;;;;;;;2.87;0.90;;;;;;;14.17;64.89;97404.41;4936093;28;20110;-78
2021/09/30 07:51:57;;;;;;;3.13;1.23;;;;;;;14.32;65.25;97410.81;4971816;28;20065;-78
2021/09/30 07:54:23;;;;;;;5.93;1.07;;;;;;;13.33;68.53;97416.13;4953807;28;20459;-78
2021/09/30 07:56:52;;;;;;;5.07;1.20;;;;;;;13.09;70.32;97429.84;4938468;28;20035;-78
2021/09/30 07:59:18;;;;;;;5.93;0.80;;;;;;;13.53;67.54;97422.97;4971942;28;20027;-78
2021/09/30 08:01:44;;;;;;;2.07;1.30;;;;;;;13.42;67.42;97424.00;4941186;28;20057;-78
2021/09/30 08:04:09;;;;;;;5.20;1.00;;;;;;;13.50;66.56;97428.53;4941375;28;20027;-78
2021/09/30 08:06:39;;;;;;;3.60;1.03;;;;;;;14.34;64.68;97422.06;4939049;28;20034;-77
2021/09/30 08:09:05;;;;;;;2.97;0.87;;;;;;;14.39;63.78;97419.78;4942170;28;20039;-77
2021/09/30 08:11:31;;;;;;;5.60;0.80;;;;;;;14.27;65.35;97416.56;4957064;28;20113;-77
2021/09/30 08:13:59;;;;;;;3.30;0.70;;;;;;;13.73;68.27;97420.19;4953866;28;20077;-78
2021/09/30 08:16:27;;;;;;;2.63;1.00;;;;;;;14.34;64.99;97411.47;4954466;28;20109;-78
2021/09/30 08:18:58;;;;;;;3.63;1.13;;;;;;;14.42;64.81;97414.19;4939828;28;20552;-78
2021/09/30 08:21:24;;;;;;;4.03;1.53;;;;;;;13.30;68.15;97419.88;4938861;28;20046;-78
2021/09/30 08:23:51;;;;;;;5.57;0.93;;;;;;;13.29;69.11;97417.41;4941875;28;20030;-77
2021/09/30 08:26:20;;;;;;;4.47;0.93;;;;;;;14.00;65.84;97414.84;4954563;28;20525;-78
2021/09/30 08:28:51;;;;;;;3.43;1.00;;;;;;;14.32;63.91;97409.00;4971226;28;20026;-78
2021/09/30 08:31:19;;;;;;;8.60;1.67;;;;;;;15.78;60.70;97405.41;4954914;28;20039;-78
2021/09/30 08:33:46;;;;;;;4.57;1.40;;;;;;;15.86;59.67;97403.78;4939878;28;20045;-78
2021/09/30 08:36:14;;;;;;;6.10;1.10;;;;;;;16.06;59.09;97402.47;4935801;29;20042;-78
2021/09/30 08:38:42;;;;;;;4.85;1.00;;;;;;;16.73;57.53;97405.75;4938846;28;20029;-78
2021/09/30 08:41:09;;;;;;;1.70;0.88;;;;;;;15.30;59.63;97406.94;4955314;28;20481;-78
2021/09/30 08:43:34;;;;;;;3.95;0.93;;;;;;;15.01;59.89;97406.47;4953892;28;20031;-77
2021/09/30 08:46:00;;;;;;;1.85;1.00;;;;;;;15.70;59.71;97408.06;4945566;28;20531;-78
2021/09/30 08:48:27;;;;;;;3.55;1.13;;;;;;;16.14;56.40;97407.78;4951630;28;20848;-78
2021/09/30 08:50:53;;;;;;;4.47;0.95;;;;;;;15.43;58.99;97403.81;4938412;28;20089;-78
2021/09/30 08:53:22;;;;;;;3.92;0.90;;;;;;;15.73;58.71;97397.13;4934020;29;20496;-78
2021/09/30 08:55:52;;;;;;;3.45;1.20;;;;;;;17.36;53.73;97393.44;4953688;28;20050;-78
2021/09/30 08:58:19;;;;;;;2.35;0.85;;;;;;;17.43;53.21;97388.25;4953785;28;20046;-78
2021/09/30 09:00:45;;;;;;;4.03;0.85;;;;;;;17.56;52.22;97393.00;4953630;28;20027;-78
2021/09/30 09:03:11;;;;;;;1.67;0.80;;;;;;;18.66;50.91;97388.19;4943401;28;20082;-78
2021/09/30 09:05:39;;;;;;;4.72;1.00;;;;;;;19.14;48.25;97383.38;4952121;28;20045;-78
2021/09/30 09:08:11;;;;;;;2.20;1.08;;;;;;;17.86;50.94;97394.03;4939421;28;20027;-78
2021/09/30 09:10:41;;;;;;;5.40;1.42;;;;;;;16.63;53.99;97390.97;4970468;28;20027;-78
2021/09/30 09:13:14;;;;;;;4.47;0.88;;;;;;;16.36;54.07;97392.19;4940223;28;20081;-78
2021/09/30 09:15:46;;;;;;;5.45;1.15;;;;;;;15.82;54.79;97391.84;4938597;28;20039;-77
2021/09/30 09:18:17;;;;;;;2.70;0.70;;;;;;;14.98;57.82;97397.00;4936275;28;20077;-77
2021/09/30 09:20:59;;;;;;;5.97;1.42;;;;;;;15.45;57.36;97390.41;4953017;28;20073;-78
2021/09/30 09:23:50;;;;;;;3.55;0.93;;;;;;;14.26;59.34;97391.09;4937095;28;20400;-77
2021/09/30 09:26:18;;;;;;;3.13;0.77;;;;;;;13.73;60.15;97399.88;4946814;28;20089;-78
2021/09/30 09:29:05;;;;;;;4.03;0.90;;;;;;;13.61;61.11;97387.84;4952479;28;20109;-78
2021/09/30 09:31:32;;;;;;;4.20;0.85;;;;;;;14.01;60.18;97390.03;4952164;28;20035;-78
2021/09/30 09:34:38;;;;;;;4.15;0.93;;;;;;;13.85;60.38;97385.47;4966255;28;20035;-77
2021/09/30 09:37:35;;;;;;;6.43;0.93;;;;;;;15.87;56.08;97384.22;4963872;28;20065;-77
2021/09/30 09:40:17;;;;;;;5.07;0.77;;;;;;;17.20;51.72;97378.41;4934338;29;20050;-78
2021/09/30 09:42:45;;;;;;;2.42;0.88;;;;;;;15.77;54.29;97382.56;4935410;28;20446;-78
2021/09/30 09:45:48;;;;;;;2.33;0.80;;;;;;;15.37;56.77;97391.22;4956429;28;20070;-77
2021/09/30 09:48:17;;;;;;;4.80;0.80;;;;;;;15.35;56.21;97390.53;4972025;28;20158;-78
2021/09/30 09:50:42;;;;;;;3.38;1.23;;;;;;;15.70;53.85;97389.50;4966018;28;20392;-77
2021/09/30 09:53:16;;;;;;;3.38;0.60;;;;;;;17.26;49.50;97386.69;4952779;28;20040;-78
2021/09/30 09:55:42;;;;;;;3.55;0.70;;;;;;;16.57;50.02;97395.16;4959424;28;20038;-78
2021/09/30 09:58:17;;;;;;;4.72;1.00;;;;;;;17.53;47.03;97380.88;4936892;28;20026;-78
2021/09/30 10:00:52;;;;;;;6.90;0.98;;;;;;;16.88;47.98;97389.16;4941309;28;20030;-78
2021/09/30 10:03:19;;;;;;;2.88;0.70;;;;;;;16.99;47.26;97385.28;4952125;28;20026;-78
2021/09/30 10:05:46;;;;;;;3.03;0.70;;;;;;;17.42;46.35;97383.94;4953442;28;20034;-78
2021/09/30 10:08:14;;;;;;;4.55;0.77;;;;;;;17.93;45.95;97368.34;4950767;28;20065;-77
2021/09/30 10:10:41;;;;;;;5.03;0.52;;;;;;;17.95;44.89;97360.22;4925016;28;20031;-78
2021/09/30 10:13:07;;;;;;;1.25;0.43;;;;;;;18.93;42.61;97357.47;4951560;28;20038;-78
2021/09/30 10:15:35;;;;;;;3.03;0.70;;;;;;;18.85;42.52;97346.91;4947932;28;20033;-78
2021/09/30 10:18:08;;;;;;;1.95;0.55;;;;;;;18.78;40.51;97346.81;4940558;28;20042;-78
2021/09/30 10:20:35;;;;;;;3.03;1.00;;;;;;;18.37;41.95;97344.50;4953854;28;20501;-78
2021/09/30 10:23:07;;;;;;;1.67;0.60;;;;;;;18.30;40.71;97345.41;4944279;28;20434;-78
2021/09/30 10:25:39;;;;;;;5.75;1.30;;;;;;;18.54;40.49;97344.34;4929592;28;20134;-78
2021/09/30 10:28:06;;;;;;;1.95;0.60;;;;;;;18.12;40.45;97356.41;4952472;28;20031;-78
2021/09/30 10:30:40;;;;;;;4.60;0.82;;;;;;;19.27;39.20;97340.88;4933185;29;20508;-78
2021/09/30 10:33:09;;;;;;;3.80;0.85;;;;;;;18.80;40.89;97330.63;4964971;28;20134;-78
2021/09/30 10:35:41;;;;;;;3.45;0.80;;;;;;;19.52;38.63;97327.22;4937145;28;20401;-77
2021/09/30 10:38:29;;;;;;;2.35;0.60;;;;;;;18.43;41.16;97340.31;4956325;28;20035;-78
2021/09/30 10:41:09;;;;;;;4.65;0.60;;;;;;;19.05;39.47;97333.84;4940139;28;20551;-78
2021/09/30 10:43:44;;;;;;;4.75;0.90;;;;;;;19.12;38.13;97334.75;4940680;28;20039;-79
2021/09/30 10:46:33;;;;;;;2.22;0.50;;;;;;;18.31;39.77;97339.94;4939437;28;20038;-78
2021/09/30 10:48:58;;;;;;;1.58;0.50;;;;;;;18.93;38.80;97329.97;4966835;28;20125;-78
2021/09/30 10:51:25;;;;;;;3.40;0.70;;;;;;;18.69;39.32;97331.88;4940480;28;20456;-78
2021/09/30 10:53:52;;;;;;;4.13;0.90;;;;;;;19.92;37.40;97324.94;4938872;28;20066;-78
2021/09/30 10:56:37;;;;;;;2.67;0.80;;;;;;;20.57;37.44;97325.69;4955626;28;20030;-79
2021/09/30 10:59:09;;;;;;;3.00;0.55;;;;;;;19.66;35.11;97312.19;4972276;28;20122;-78
2021/09/30 11:01:47;;;;;;;3.03;0.90;;;;;;;18.04;39.10;97322.72;4969032;28;20405;-78
2021/09/30 11:04:14;;;;;;;4.10;0.90;;;;;;;18.75;40.50;97320.53;4942558;28;20079;-78
2021/09/30 11:06:41;;;;;;;2.67;0.57;;;;;;;18.68;38.29;97308.06;4939453;28;20019;-78
2021/09/30 11:09:21;;;;;;;3.50;0.50;;;;;;;19.96;38.01;97310.22;4938598;28;20178;-78
2021/09/30 11:11:49;;;;;;;2.78;0.50;;;;;;;20.09;36.99;97309.50;4951606;28;20035;-78
2021/09/30 11:14:20;;;;;;;1.63;0.60;;;;;;;20.77;35.60;97309.78;4949262;28;20062;-78
2021/09/30 11:16:48;;;;;;;1.75;0.43;;;;;;;20.57;37.66;97307.81;4937546;28;20031;-78
2021/09/30 11:19:33;;;;;;;9.43;4.32;;;;;;;20.85;35.06;97294.41;4954759;28;20389;-78
2021/09/30 11:22:01;;;;;;;2.38;0.70;;;;;;;19.83;36.94;97297.56;4959044;28;20030;-78
2021/09/30 11:24:31;;;;;;;4.68;1.48;;;;;;;20.80;35.18;97299.53;4954691;28;20034;-79
2021/09/30 11:27:07;;;;;;;3.92;1.98;;;;;;;20.88;34.03;97293.19;4953986;28;20742;-78
2021/09/30 11:29:33;;;;;;;5.65;2.63;;;;;;;21.02;34.79;97286.03;4939357;28;20742;-78
2021/09/30 11:31:59;;;;;;;3.83;0.70;;;;;;;20.67;34.29;97294.09;4955084;28;20033;-78
2021/09/30 11:34:29;;;;;;;4.32;0.70;;;;;;;20.73;34.56;97292.50;4936320;29;20061;-77
2021/09/30 11:37:00;;;;;;;2.03;0.90;;;;;;;20.11;35.25;97278.06;4954928;28;20105;-78
2021/09/30 11:39:34;;;;;;;2.10;0.55;;;;;;;19.41;36.71;97277.81;4951778;28;20081;-78
2021/09/30 11:42:01;;;;;;;4.47;0.73;;;;;;;19.44;35.75;97271.28;4955292;28;20030;-78
2021/09/30 11:44:28;;;;;;;2.90;0.50;;;;;;;20.36;34.45;97273.13;4954699;28;20101;-77
2021/09/30 11:46:57;;;;;;;4.13;0.65;;;;;;;20.41;34.02;97268.00;4951830;28;20497;-78
2021/09/30 11:49:40;;;;;;;2.65;0.50;;;;;;;20.14;34.87;97262.50;4952462;28;20109;-77
2021/09/30 11:52:13;;;;;;;2.72;0.55;;;;;;;18.91;34.81;97268.03;4942088;28;20053;-77
2021/09/30 11:54:41;;;;;;;1.02;0.40;;;;;;;19.14;35.78;97263.38;4964380;28;20059;-78
2021/09/30 11:57:27;;;;;;;4.20;0.80;;;;;;;19.42;34.04;97265.34;4954702;28;20031;-77
2021/09/30 12:00:17;;;;;;;2.10;0.52;;;;;;;19.57;34.79;97257.25;4938620;28;20038;-78
2021/09/30 12:02:58;;;;;;;5.07;0.63;;;;;;;18.70;35.90;97266.09;4937533;28;20572;-78
2021/09/30 12:05:29;;;;;;;2.10;0.47;;;;;;;18.16;37.10;97258.38;4954051;28;20031;-78
2021/09/30 12:07:59;;;;;;;2.28;0.50;;;;;;;17.40;39.14;97258.31;4938426;28;20039;-77
2021/09/30 12:10:26;;;;;;;2.17;0.50;;;;;;;16.85;39.04;97256.66;4955459;28;20513;-78
2021/09/30 12:12:56;;;;;;;3.30;0.60;;;;;;;16.96;37.92;97264.22;4937925;28;20082;-77
2021/09/30 12:15:25;;;;;;;2.28;0.52;;;;;;;17.88;38.24;97269.63;4954843;28;20070;-78
2021/09/30 12:17:51;;;;;;;1.35;0.38;;;;;;;17.71;38.20;97257.44;4938004;28;20031;-78
2021/09/30 12:20:20;;;;;;;2.83;0.50;;;;;;;19.25;35.87;97246.09;4972463;28;20069;-78
2021/09/30 12:22:53;;;;;;;1.98;0.50;;;;;;;19.45;34.44;97248.91;4936180;28;20375;-78
2021/09/30 12:25:27;;;;;;;1.95;0.50;;;;;;;20.31;32.27;97241.66;4941813;28;20030;-78
2021/09/30 12:27:55;;;;;;;0.95;0.40;;;;;;;20.18;32.66;97237.03;4953794;28;20038;-77
2021/09/30 12:30:24;;;;;;;2.88;0.60;;;;;;;19.93;31.01;97242.00;4938358;28;20042;-78
2021/09/30 12:32:53;;;;;;;0.77;0.32;;;;;;;18.32;31.85;97250.22;4971523;28;20566;-77
2021/09/30 12:35:38;;;;;;;2.00;0.60;;;;;;;17.95;32.13;97235.94;4937409;28;20059;-77
2021/09/30 12:38:09;;;;;;;3.53;0.80;;;;;;;18.86;35.41;97236.59;4970609;28;20053;-79
2021/09/30 12:40:38;;;;;;;3.20;0.50;;;;;;;19.48;34.95;97222.72;4954534;28;20038;-78
2021/09/30 12:43:11;;;;;;;2.97;0.98;;;;;;;20.10;33.74;97223.03;4953992;28;20110;-79
2021/09/30 12:46:07;;;;;;;1.27;0.35;;;;;;;19.89;33.28;97219.38;4941837;28;20035;-78
2021/09/30 12:48:34;;;;;;;0.85;0.40;;;;;;;19.49;31.85;97221.69;4948824;28;20038;-78
2021/09/30 12:51:06;;;;;;;2.97;0.70;;;;;;;19.57;31.30;97222.56;4952165;28;20567;-78
2021/09/30 12:53:44;;;;;;;0.65;0.38;;;;;;;20.00;29.39;97218.84;4936289;28;20062;-78
2021/09/30 12:56:14;;;;;;;0.68;0.28;;;;;;;19.87;30.81;97212.59;4953406;28;20047;-78
2021/09/30 12:58:53;;;;;;;2.50;0.73;;;;;;;19.44;30.81;97216.09;4953060;28;20041;-78
2021/09/30 13:01:30;;;;;;;1.33;0.40;;;;;;;19.18;29.66;97207.81;4970697;28;20070;-77
2021/09/30 13:04:06;;;;;;;1.77;0.40;;;;;;;19.42;31.64;97206.66;4953652;28;20038;-78
2021/09/30 13:06:42;;;;;;;2.50;1.23;;;;;;;19.81;31.28;97205.34;4936590;28;20409;-78
2021/09/30 13:09:23;;;;;;;3.03;1.23;;;;;;;19.40;31.68;97204.16;4935918;28;20049;-78
2021/09/30 13:11:51;;;;;;;2.70;0.68;;;;;;;19.04;33.07;97206.88;4935474;28;20222;-77
2021/09/30 13:14:35;;;;;;;0.88;0.30;;;;;;;19.35;33.35;97203.91;4934487;28;20548;-78
2021/09/30 13:17:18;;;;;;;1.52;0.50;;;;;;;19.46;33.32;97189.25;4971008;28;20038;-78
2021/09/30 13:19:57;;;;;;;2.38;0.40;;;;;;;19.10;32.88;97189.28;4951237;28;20058;-79
2021/09/30 13:22:29;;;;;;;1.77;0.40;;;;;;;18.59;32.37;97188.28;4953147;28;20062;-77
2021/09/30 13:24:58;;;;;;;2.70;0.52;;;;;;;19.25;34.14;97184.75;4952442;28;20050;-78
2021/09/30 13:27:27;;;;;;;3.60;0.80;;;;;;;19.47;34.35;97181.03;4970190;28;20023;-78
2021/09/30 13:29:54;;;;;;;2.05;0.45;;;;;;;19.38;27.52;97176.84;4939444;28;20045;-78
2021/09/30 13:32:24;;;;;;;2.22;0.50;;;;;;;18.49;30.82;97171.78;4951787;28;20433;-78
2021/09/30 13:34:50;;;;;;;2.10;0.55;;;;;;;18.61;32.07;97175.63;4935236;28;20031;-78
2021/09/30 13:37:16;;;;;;;2.03;0.55;;;;;;;18.78;31.47;97173.59;4937339;28;20082;-78
2021/09/30 13:39:42;;;;;;;2.22;0.60;;;;;;;18.16;31.30;97166.00;4936830;28;20039;-78
2021/09/30 13:42:09;;;;;;;1.42;0.60;;;;;;;18.45;31.90;97165.16;4939968;28;20019;-77
2021/09/30 13:44:35;;;;;;;1.45;0.40;;;;;;;18.43;31.24;97169.84;4935693;28;20101;-77
2021/09/30 13:47:01;;;;;;;1.40;0.52;;;;;;;18.61;32.03;97170.28;4936910;28;20182;-77
2021/09/30 13:49:27;;;;;;;1.83;0.40;;;;;;;18.45;32.47;97159.84;4970141;28;20035;-77
2021/09/30 13:51:53;;;;;;;1.95;0.60;;;;;;;18.74;32.40;97150.97;4930246;28;20027;-77
2021/09/30 13:54:22;;;;;;;3.53;1.02;;;;;;;18.26;33.35;97152.44;4935519;28;20077;-78
2021/09/30 13:56:47;;;;;;;1.58;0.52;;;;;;;18.12;32.57;97144.25;4952762;28;20041;-78
2021/09/30 13:59:13;;;;;;;0.90;0.40;;;;;;;18.22;32.12;97145.81;4963985;28;20034;-78
2021/09/30 14:01:39;;;;;;;2.50;0.70;;;;;;;17.98;32.62;97150.41;4952918;28;20026;-78
2021/09/30 14:04:07;;;;;;;4.10;0.75;;;;;;;17.75;33.90;97146.97;4951595;28;20058;-77
2021/09/30 14:06:33;;;;;;;2.08;0.55;;;;;;;17.93;33.03;97147.47;4934941;28;20038;-77
2021/09/30 14:08:59;;;;;;;1.95;0.50;;;;;;;17.29;34.77;97142.56;4938691;28;20494;-77
2021/09/30 14:11:27;;;;;;;2.53;0.73;;;;;;;17.41;36.05;97145.63;4957462;28;20026;-77
2021/09/30 14:13:55;;;;;;;2.63;0.60;;;;;;;17.47;35.94;97144.91;4934416;28;20122;-78
2021/09/30 14:16:25;;;;;;;2.60;0.85;;;;;;;17.56;36.18;97143.81;4937129;28;20031;-77
2021/09/30 14:18:52;;;;;;;10.20;5.10;;;;;;;17.16;37.30;97143.16;4937298;28;20042;-77
2021/09/30 14:21:18;;;;;;;8.38;4.78;;;;;;;17.53;35.95;97138.84;4967564;28;20105;-77
2021/09/30 14:23:45;;;;;;;1.95;0.50;;;;;;;17.42;37.07;97140.13;4937981;28;20405;-79
2021/09/30 14:26:11;;;;;;;3.42;0.65;;;;;;;16.70;37.42;97139.66;4952207;28;20042;-77
2021/09/30 14:28:38;;;;;;;9.95;5.97;;;;;;;16.73;37.44;97142.78;4953008;28;20045;-78
2021/09/30 14:31:05;;;;;;;11.15;6.43;;;;;;;16.25;37.22;97136.72;4936745;28;20052;-77
2021/09/30 14:33:32;;;;;;;4.03;1.05;;;;;;;16.73;37.95;97126.00;4965085;28;20138;-78
2021/09/30 14:36:00;;;;;;;1.92;0.60;;;;;;;16.47;38.28;97123.69;4955507;28;20102;-77
2021/09/30 14:38:33;;;;;;;1.92;0.50;;;;;;;16.24;38.30;97132.41;4972935;28;20034;-78
2021/09/30 14:41:09;;;;;;;1.55;0.68;;;;;;;16.20;38.24;97127.63;4944543;28;20125;-78
2021/09/30 14:43:39;;;;;;;3.40;0.50;;;;;;;16.30;38.43;97132.72;4955150;28;20404;-78
2021/09/30 14:46:06;;;;;;;5.20;0.80;;;;;;;16.26;39.00;97122.47;4953743;28;20023;-78
2021/09/30 14:48:33;;;;;;;1.02;0.60;;;;;;;16.23;39.38;97117.50;4977520;28;20037;-78
2021/09/30 14:50:59;;;;;;;1.95;0.38;;;;;;;16.18;40.26;97119.84;4952813;28;20033;-78
2021/09/30 14:53:25;;;;;;;3.70;0.50;;;;;;;16.36;39.97;97119.56;4939539;28;20031;-78